sensor_id;sensor_type;location;lat;lon;timestamp;temperature;humidity
1015;DHT22;8170;48.118;11.628;2022-08-19T00:00:22;18.90;99.90
1015;DHT22;8170;48.118;11.628;2022-08-19T00:01:25;18.90;99.90
1015;DHT22;8170;48.118;11.628;2022-08-19T00:02:31;18.90;99.90
1015;DHT22;8170;48.118;11.628;2022-08-19T00:03:34;18.90;99.90
1015;DHT22;8170;48.118;11.628;2022-08-19T00:04:37;18.90;99.90
1015;DHT22;8170;48.118;11.628;2022-08-19T00:05:39;19.00;99.90
1015;DHT22;8170;48.118;11.628;2022-08-19T00:06:45;19.00;99.90
1015;DHT22;8170;48.118;11.628;2022-08-19T00:07:48;18.90;99.90
1015;DHT22;8170;48.118;11.628;2022-08-19T00:08:53;18.90;99.90
1015;DHT22;8170;48.118;11.628;2022-08-19T00:09:55;18.90;99.90
1015;DHT22;8170;48.118;11.628;2022-08-19T00:10:58;18.80;99.90
1015;DHT22;8170;48.118;11.628;2022-08-19T00:12:00;18.80;99.90
1015;DHT22;8170;48.118;11.628;2022-08-19T00:13:03;18.70;99.90
1015;DHT22;8170;48.118;11.628;2022-08-19T00:14:07;18.70;99.90
1015;DHT22;8170;48.118;11.628;2022-08-19T00:15:13;18.70;99.90
1015;DHT22;8170;48.118;11.628;2022-08-19T00:16:16;18.80;99.90
1015;DHT22;8170;48.118;11.628;2022-08-19T00:17:26;18.70;99.90
1015;DHT22;8170;48.118;11.628;2022-08-19T00:18:28;18.80;99.90
1015;DHT22;8170;48.118;11.628;2022-08-19T00:19:31;18.80;99.90
1015;DHT22;8170;48.118;11.628;2022-08-19T00:20:33;18.80;99.90
1015;DHT22;8170;48.118;11.628;2022-08-19T00:21:36;18.80;99.90
1015;DHT22;8170;48.118;11.628;2022-08-19T00:22:41;18.70;99.90
1015;DHT22;8170;48.118;11.628;2022-08-19T00:23:45;18.80;99.90
1015;DHT22;8170;48.118;11.628;2022-08-19T00:24:49;18.80;99.90
1015;DHT22;8170;48.118;11.628;2022-08-19T00:25:52;18.80;99.90
1015;DHT22;8170;48.118;11.628;2022-08-19T00:26:55;18.80;99.90
1015;DHT22;8170;48.118;11.628;2022-08-19T00:28:19;18.80;99.90
1015;DHT22;8170;48.118;11.628;2022-08-19T00:29:23;18.70;99.90
1015;DHT22;8170;48.118;11.628;2022-08-19T00:30:26;18.70;99.90
1015;DHT22;8170;48.118;11.628;2022-08-19T00:31:31;18.70;99.90
1015;DHT22;8170;48.118;11.628;2022-08-19T00:32:33;18.70;99.90
1015;DHT22;8170;48.118;11.628;2022-08-19T00:33:37;18.70;99.90
1015;DHT22;8170;48.118;11.628;2022-08-19T00:34:39;18.70;99.90
1015;DHT22;8170;48.118;11.628;2022-08-19T00:35:42;18.60;99.90
1015;DHT22;8170;48.118;11.628;2022-08-19T00:36:45;18.70;99.90
1015;DHT22;8170;48.118;11.628;2022-08-19T00:37:49;18.60;99.90
1015;DHT22;8170;48.118;11.628;2022-08-19T00:38:52;18.70;99.90
1015;DHT22;8170;48.118;11.628;2022-08-19T00:39:55;18.70;99.90
1015;DHT22;8170;48.118;11.628;2022-08-19T00:40:59;18.70;99.90
1015;DHT22;8170;48.118;11.628;2022-08-19T00:42:01;18.70;99.90
1015;DHT22;8170;48.118;11.628;2022-08-19T00:43:08;18.70;99.90
1015;DHT22;8170;48.118;11.628;2022-08-19T00:44:12;18.70;99.90
1015;DHT22;8170;48.118;11.628;2022-08-19T00:45:23;18.70;99.90
1015;DHT22;8170;48.118;11.628;2022-08-19T00:46:27;18.60;99.90
1015;DHT22;8170;48.118;11.628;2022-08-19T00:47:30;18.70;99.90
1015;DHT22;8170;48.118;11.628;2022-08-19T00:48:33;18.60;99.90
1015;DHT22;8170;48.118;11.628;2022-08-19T00:49:39;18.60;99.90
1015;DHT22;8170;48.118;11.628;2022-08-19T00:50:45;18.60;99.90
1015;DHT22;8170;48.118;11.628;2022-08-19T00:51:57;18.50;99.90
1015;DHT22;8170;48.118;11.628;2022-08-19T00:53:02;18.50;99.90
1015;DHT22;8170;48.118;11.628;2022-08-19T00:54:05;18.60;99.90
1015;DHT22;8170;48.118;11.628;2022-08-19T00:55:10;18.50;99.90
1015;DHT22;8170;48.118;11.628;2022-08-19T00:56:14;18.50;99.90
1015;DHT22;8170;48.118;11.628;2022-08-19T00:57:23;18.50;99.90
1015;DHT22;8170;48.118;11.628;2022-08-19T00:58:31;18.60;99.90
1015;DHT22;8170;48.118;11.628;2022-08-19T00:59:35;18.50;99.90
1015;DHT22;8170;48.118;11.628;2022-08-19T01:01:00;18.50;99.90
1015;DHT22;8170;48.118;11.628;2022-08-19T01:02:04;18.60;99.90
1015;DHT22;8170;48.118;11.628;2022-08-19T01:03:08;18.60;99.90
1015;DHT22;8170;48.118;11.628;2022-08-19T01:04:12;18.60;99.90
1015;DHT22;8170;48.118;11.628;2022-08-19T01:05:16;18.60;99.90
1015;DHT22;8170;48.118;11.628;2022-08-19T01:06:22;18.60;99.90
1015;DHT22;8170;48.118;11.628;2022-08-19T01:07:25;18.50;99.90
1015;DHT22;8170;48.118;11.628;2022-08-19T01:08:28;18.50;99.90
1015;DHT22;8170;48.118;11.628;2022-08-19T01:09:31;18.50;99.90
1015;DHT22;8170;48.118;11.628;2022-08-19T01:10:37;18.50;99.90
1015;DHT22;8170;48.118;11.628;2022-08-19T01:11:42;18.40;99.90
1015;DHT22;8170;48.118;11.628;2022-08-19T01:12:48;18.40;99.90
1015;DHT22;8170;48.118;11.628;2022-08-19T01:13:52;18.40;99.90
1015;DHT22;8170;48.118;11.628;2022-08-19T01:14:55;18.40;99.90
1015;DHT22;8170;48.118;11.628;2022-08-19T01:16:02;18.40;99.90
1015;DHT22;8170;48.118;11.628;2022-08-19T01:17:07;18.40;99.90
1015;DHT22;8170;48.118;11.628;2022-08-19T01:18:13;18.30;99.90
1015;DHT22;8170;48.118;11.628;2022-08-19T01:19:20;18.30;99.90
1015;DHT22;8170;48.118;11.628;2022-08-19T01:20:26;18.30;99.90
1015;DHT22;8170;48.118;11.628;2022-08-19T01:21:32;18.30;99.90
1015;DHT22;8170;48.118;11.628;2022-08-19T01:22:40;18.30;99.90
1015;DHT22;8170;48.118;11.628;2022-08-19T01:23:45;18.20;99.90
1015;DHT22;8170;48.118;11.628;2022-08-19T01:24:47;18.30;99.90
1015;DHT22;8170;48.118;11.628;2022-08-19T01:25:52;18.30;99.90
1015;DHT22;8170;48.118;11.628;2022-08-19T01:26:56;18.30;99.90
1015;DHT22;8170;48.118;11.628;2022-08-19T01:27:59;18.30;99.90
1015;DHT22;8170;48.118;11.628;2022-08-19T01:29:11;18.30;99.90
1015;DHT22;8170;48.118;11.628;2022-08-19T01:30:18;18.30;99.90
1015;DHT22;8170;48.118;11.628;2022-08-19T01:31:23;18.30;99.90
1015;DHT22;8170;48.118;11.628;2022-08-19T01:32:28;18.30;99.90
1015;DHT22;8170;48.118;11.628;2022-08-19T01:33:35;18.40;99.90
1015;DHT22;8170;48.118;11.628;2022-08-19T01:34:38;18.40;99.90
1015;DHT22;8170;48.118;11.628;2022-08-19T01:35:41;18.40;99.90
1015;DHT22;8170;48.118;11.628;2022-08-19T01:36:46;18.50;99.90
1015;DHT22;8170;48.118;11.628;2022-08-19T01:37:52;18.50;99.90
1015;DHT22;8170;48.118;11.628;2022-08-19T01:38:57;18.50;99.90
1015;DHT22;8170;48.118;11.628;2022-08-19T01:39:59;18.60;99.90
1015;DHT22;8170;48.118;11.628;2022-08-19T01:41:10;18.60;99.90
1015;DHT22;8170;48.118;11.628;2022-08-19T01:42:12;18.60;99.90
1015;DHT22;8170;48.118;11.628;2022-08-19T01:43:15;18.50;99.90
1015;DHT22;8170;48.118;11.628;2022-08-19T01:44:18;18.50;99.90
1015;DHT22;8170;48.118;11.628;2022-08-19T01:45:24;18.50;99.90
1015;DHT22;8170;48.118;11.628;2022-08-19T01:46:27;18.50;99.90
1015;DHT22;8170;48.118;11.628;2022-08-19T01:47:30;18.50;99.90
1015;DHT22;8170;48.118;11.628;2022-08-19T01:48:37;18.50;99.90
1015;DHT22;8170;48.118;11.628;2022-08-19T01:49:40;18.50;99.90
1015;DHT22;8170;48.118;11.628;2022-08-19T01:50:43;18.60;99.90
1015;DHT22;8170;48.118;11.628;2022-08-19T01:51:46;18.50;99.90
1015;DHT22;8170;48.118;11.628;2022-08-19T01:52:50;18.60;99.90
1015;DHT22;8170;48.118;11.628;2022-08-19T01:54:04;18.60;99.90
1015;DHT22;8170;48.118;11.628;2022-08-19T01:55:11;18.60;99.90
1015;DHT22;8170;48.118;11.628;2022-08-19T01:56:14;18.60;99.90
1015;DHT22;8170;48.118;11.628;2022-08-19T01:57:17;18.70;99.90
1015;DHT22;8170;48.118;11.628;2022-08-19T01:58:22;18.60;99.90
1015;DHT22;8170;48.118;11.628;2022-08-19T01:59:27;18.70;99.90
1015;DHT22;8170;48.118;11.628;2022-08-19T02:00:31;18.70;99.90
1015;DHT22;8170;48.118;11.628;2022-08-19T02:01:34;18.70;99.90
1015;DHT22;8170;48.118;11.628;2022-08-19T02:02:37;18.70;99.90
1015;DHT22;8170;48.118;11.628;2022-08-19T02:03:40;18.60;99.90
1015;DHT22;8170;48.118;11.628;2022-08-19T02:04:43;18.70;99.90
1015;DHT22;8170;48.118;11.628;2022-08-19T02:05:47;18.70;99.90
1015;DHT22;8170;48.118;11.628;2022-08-19T02:06:50;18.70;99.90
1015;DHT22;8170;48.118;11.628;2022-08-19T02:07:54;18.70;99.90
1015;DHT22;8170;48.118;11.628;2022-08-19T02:08:57;18.70;99.90
1015;DHT22;8170;48.118;11.628;2022-08-19T02:10:02;18.70;99.90
1015;DHT22;8170;48.118;11.628;2022-08-19T02:11:18;18.70;99.90
1015;DHT22;8170;48.118;11.628;2022-08-19T02:12:22;18.70;99.90
1015;DHT22;8170;48.118;11.628;2022-08-19T02:13:25;18.70;99.90
1015;DHT22;8170;48.118;11.628;2022-08-19T02:14:28;18.70;99.90
1015;DHT22;8170;48.118;11.628;2022-08-19T02:15:31;18.70;99.90
1015;DHT22;8170;48.118;11.628;2022-08-19T02:16:34;18.70;99.90
1015;DHT22;8170;48.118;11.628;2022-08-19T02:17:38;18.70;99.90
1015;DHT22;8170;48.118;11.628;2022-08-19T02:18:41;18.70;99.90
1015;DHT22;8170;48.118;11.628;2022-08-19T02:19:43;18.70;99.90
1015;DHT22;8170;48.118;11.628;2022-08-19T02:20:47;18.70;99.90
1015;DHT22;8170;48.118;11.628;2022-08-19T02:21:49;18.70;99.90
1015;DHT22;8170;48.118;11.628;2022-08-19T02:22:54;18.60;99.90
1015;DHT22;8170;48.118;11.628;2022-08-19T02:23:57;18.60;99.90
1015;DHT22;8170;48.118;11.628;2022-08-19T02:25:34;18.50;99.90
1015;DHT22;8170;48.118;11.628;2022-08-19T02:26:47;18.50;99.90
1015;DHT22;8170;48.118;11.628;2022-08-19T02:28:07;18.50;99.90
1015;DHT22;8170;48.118;11.628;2022-08-19T02:31:34;18.50;99.90
1015;DHT22;8170;48.118;11.628;2022-08-19T02:33:12;18.50;99.90
1015;DHT22;8170;48.118;11.628;2022-08-19T02:34:35;18.50;99.90
1015;DHT22;8170;48.118;11.628;2022-08-19T02:35:54;18.50;99.90
1015;DHT22;8170;48.118;11.628;2022-08-19T02:37:17;18.50;99.90
1015;DHT22;8170;48.118;11.628;2022-08-19T02:39:10;18.50;99.90
1015;DHT22;8170;48.118;11.628;2022-08-19T02:40:32;18.50;99.90
1015;DHT22;8170;48.118;11.628;2022-08-19T02:42:34;18.40;99.90
1015;DHT22;8170;48.118;11.628;2022-08-19T02:43:39;18.40;99.90
1015;DHT22;8170;48.118;11.628;2022-08-19T02:45:10;18.30;99.90
1015;DHT22;8170;48.118;11.628;2022-08-19T02:46:39;18.30;99.90
1015;DHT22;8170;48.118;11.628;2022-08-19T02:48:28;18.30;99.90
1015;DHT22;8170;48.118;11.628;2022-08-19T02:50:07;18.20;99.90
1015;DHT22;8170;48.118;11.628;2022-08-19T02:51:59;18.30;99.90
1015;DHT22;8170;48.118;11.628;2022-08-19T02:53:21;18.40;99.90
1015;DHT22;8170;48.118;11.628;2022-08-19T02:55:03;18.30;99.90
1015;DHT22;8170;48.118;11.628;2022-08-19T02:56:33;18.30;99.90
1015;DHT22;8170;48.118;11.628;2022-08-19T02:58:36;18.30;99.90
1015;DHT22;8170;48.118;11.628;2022-08-19T02:59:49;18.30;99.90
1015;DHT22;8170;48.118;11.628;2022-08-19T03:02:09;18.30;99.90
1015;DHT22;8170;48.118;11.628;2022-08-19T03:03:46;18.30;99.90
1015;DHT22;8170;48.118;11.628;2022-08-19T03:05:03;18.30;99.90
1015;DHT22;8170;48.118;11.628;2022-08-19T03:06:18;18.30;99.90
1015;DHT22;8170;48.118;11.628;2022-08-19T03:07:51;18.30;99.90
1015;DHT22;8170;48.118;11.628;2022-08-19T03:09:26;18.20;99.90
1015;DHT22;8170;48.118;11.628;2022-08-19T03:11:22;18.20;99.90
1015;DHT22;8170;48.118;11.628;2022-08-19T03:12:45;18.20;99.90
1015;DHT22;8170;48.118;11.628;2022-08-19T03:14:16;18.20;99.90
1015;DHT22;8170;48.118;11.628;2022-08-19T03:15:46;18.20;99.90
1015;DHT22;8170;48.118;11.628;2022-08-19T03:17:02;18.10;99.90
1015;DHT22;8170;48.118;11.628;2022-08-19T03:18:53;18.20;99.90
1015;DHT22;8170;48.118;11.628;2022-08-19T03:20:50;18.20;99.90
1015;DHT22;8170;48.118;11.628;2022-08-19T03:22:22;18.20;99.90
1015;DHT22;8170;48.118;11.628;2022-08-19T03:24:12;18.30;99.90
1015;DHT22;8170;48.118;11.628;2022-08-19T03:25:42;18.30;99.90
1015;DHT22;8170;48.118;11.628;2022-08-19T03:26:52;18.20;99.90
1015;DHT22;8170;48.118;11.628;2022-08-19T03:28:16;18.30;99.90
1015;DHT22;8170;48.118;11.628;2022-08-19T03:31:27;18.30;99.90
1015;DHT22;8170;48.118;11.628;2022-08-19T03:35:00;18.30;99.90
1015;DHT22;8170;48.118;11.628;2022-08-19T03:36:24;18.30;99.90
1015;DHT22;8170;48.118;11.628;2022-08-19T03:38:05;18.20;99.90
1015;DHT22;8170;48.118;11.628;2022-08-19T03:39:21;18.20;99.90
1015;DHT22;8170;48.118;11.628;2022-08-19T03:40:40;18.10;99.90
1015;DHT22;8170;48.118;11.628;2022-08-19T03:41:56;18.10;99.90
1015;DHT22;8170;48.118;11.628;2022-08-19T03:43:26;18.10;99.90
1015;DHT22;8170;48.118;11.628;2022-08-19T03:44:30;18.20;99.90
1015;DHT22;8170;48.118;11.628;2022-08-19T03:45:33;18.20;99.90
1015;DHT22;8170;48.118;11.628;2022-08-19T03:46:37;18.20;99.90
1015;DHT22;8170;48.118;11.628;2022-08-19T03:47:43;18.20;99.90
1015;DHT22;8170;48.118;11.628;2022-08-19T03:48:48;18.20;99.90
1015;DHT22;8170;48.118;11.628;2022-08-19T03:49:50;18.20;99.90
1015;DHT22;8170;48.118;11.628;2022-08-19T03:50:53;18.10;99.90
1015;DHT22;8170;48.118;11.628;2022-08-19T03:51:57;18.10;99.90
1015;DHT22;8170;48.118;11.628;2022-08-19T03:53:01;18.20;99.90
1015;DHT22;8170;48.118;11.628;2022-08-19T03:54:07;18.20;99.90
1015;DHT22;8170;48.118;11.628;2022-08-19T03:55:10;18.10;99.90
1015;DHT22;8170;48.118;11.628;2022-08-19T03:56:13;18.10;99.90
1015;DHT22;8170;48.118;11.628;2022-08-19T03:57:17;18.10;99.90
1015;DHT22;8170;48.118;11.628;2022-08-19T03:58:21;18.10;99.90
1015;DHT22;8170;48.118;11.628;2022-08-19T03:59:25;18.10;99.90
1015;DHT22;8170;48.118;11.628;2022-08-19T04:00:28;18.10;99.90
1015;DHT22;8170;48.118;11.628;2022-08-19T04:01:31;18.10;99.90
1015;DHT22;8170;48.118;11.628;2022-08-19T04:02:36;18.10;99.90
1015;DHT22;8170;48.118;11.628;2022-08-19T04:03:39;18.20;99.90
1015;DHT22;8170;48.118;11.628;2022-08-19T04:04:43;18.20;99.90
1015;DHT22;8170;48.118;11.628;2022-08-19T04:05:47;18.20;99.90
1015;DHT22;8170;48.118;11.628;2022-08-19T04:06:49;18.20;99.90
1015;DHT22;8170;48.118;11.628;2022-08-19T04:07:53;18.30;99.90
1015;DHT22;8170;48.118;11.628;2022-08-19T04:08:55;18.30;99.90
1015;DHT22;8170;48.118;11.628;2022-08-19T04:09:59;18.30;99.90
1015;DHT22;8170;48.118;11.628;2022-08-19T04:11:06;18.30;99.90
1015;DHT22;8170;48.118;11.628;2022-08-19T04:12:09;18.30;99.90
1015;DHT22;8170;48.118;11.628;2022-08-19T04:13:14;18.30;99.90
1015;DHT22;8170;48.118;11.628;2022-08-19T04:14:18;18.30;99.90
1015;DHT22;8170;48.118;11.628;2022-08-19T04:15:22;18.30;99.90
1015;DHT22;8170;48.118;11.628;2022-08-19T04:16:28;18.30;99.90
1015;DHT22;8170;48.118;11.628;2022-08-19T04:17:36;18.30;99.90
1015;DHT22;8170;48.118;11.628;2022-08-19T04:18:39;18.30;99.90
1015;DHT22;8170;48.118;11.628;2022-08-19T04:19:42;18.40;99.90
1015;DHT22;8170;48.118;11.628;2022-08-19T04:20:47;18.40;99.90
1015;DHT22;8170;48.118;11.628;2022-08-19T04:21:53;18.40;99.90
1015;DHT22;8170;48.118;11.628;2022-08-19T04:22:57;18.50;99.90
1015;DHT22;8170;48.118;11.628;2022-08-19T04:23:59;18.50;99.90
1015;DHT22;8170;48.118;11.628;2022-08-19T04:25:05;18.40;99.90
1015;DHT22;8170;48.118;11.628;2022-08-19T04:26:12;18.40;99.90
1015;DHT22;8170;48.118;11.628;2022-08-19T04:27:15;18.40;99.90
1015;DHT22;8170;48.118;11.628;2022-08-19T04:28:20;18.40;99.90
1015;DHT22;8170;48.118;11.628;2022-08-19T04:29:24;18.40;99.90
1015;DHT22;8170;48.118;11.628;2022-08-19T04:30:28;18.40;99.90
1015;DHT22;8170;48.118;11.628;2022-08-19T04:31:32;18.40;99.90
1015;DHT22;8170;48.118;11.628;2022-08-19T04:32:37;18.50;99.90
1015;DHT22;8170;48.118;11.628;2022-08-19T04:33:39;18.40;99.90
1015;DHT22;8170;48.118;11.628;2022-08-19T04:34:42;18.40;99.90
1015;DHT22;8170;48.118;11.628;2022-08-19T04:36:03;18.40;99.90
1015;DHT22;8170;48.118;11.628;2022-08-19T04:37:07;18.40;99.90
1015;DHT22;8170;48.118;11.628;2022-08-19T04:38:14;18.40;99.90
1015;DHT22;8170;48.118;11.628;2022-08-19T04:39:20;18.50;99.90
1015;DHT22;8170;48.118;11.628;2022-08-19T04:40:22;18.40;99.90
1015;DHT22;8170;48.118;11.628;2022-08-19T04:41:44;18.40;99.90
1015;DHT22;8170;48.118;11.628;2022-08-19T04:43:05;18.40;99.90
1015;DHT22;8170;48.118;11.628;2022-08-19T04:44:09;18.50;99.90
1015;DHT22;8170;48.118;11.628;2022-08-19T04:45:13;18.50;99.90
1015;DHT22;8170;48.118;11.628;2022-08-19T04:46:18;18.50;99.90
1015;DHT22;8170;48.118;11.628;2022-08-19T04:47:43;18.50;99.90
1015;DHT22;8170;48.118;11.628;2022-08-19T04:49:04;18.50;99.90
1015;DHT22;8170;48.118;11.628;2022-08-19T04:50:14;18.50;99.90
1015;DHT22;8170;48.118;11.628;2022-08-19T04:51:19;18.50;99.90
1015;DHT22;8170;48.118;11.628;2022-08-19T04:52:22;18.50;99.90
1015;DHT22;8170;48.118;11.628;2022-08-19T04:53:27;18.50;99.90
1015;DHT22;8170;48.118;11.628;2022-08-19T04:54:38;18.50;99.90
1015;DHT22;8170;48.118;11.628;2022-08-19T04:55:41;18.50;99.90
1015;DHT22;8170;48.118;11.628;2022-08-19T04:56:45;18.50;99.90
1015;DHT22;8170;48.118;11.628;2022-08-19T04:57:47;18.50;99.90
1015;DHT22;8170;48.118;11.628;2022-08-19T04:58:50;18.50;99.90
1015;DHT22;8170;48.118;11.628;2022-08-19T04:59:56;18.50;99.90
1015;DHT22;8170;48.118;11.628;2022-08-19T05:01:01;18.50;99.90
1015;DHT22;8170;48.118;11.628;2022-08-19T05:02:06;18.50;99.90
1015;DHT22;8170;48.118;11.628;2022-08-19T05:03:09;18.50;99.90
1015;DHT22;8170;48.118;11.628;2022-08-19T05:04:12;18.50;99.90
1015;DHT22;8170;48.118;11.628;2022-08-19T05:05:15;18.50;99.90
1015;DHT22;8170;48.118;11.628;2022-08-19T05:06:19;18.50;99.90
1015;DHT22;8170;48.118;11.628;2022-08-19T05:07:22;18.50;99.90
1015;DHT22;8170;48.118;11.628;2022-08-19T05:08:24;18.60;99.90
1015;DHT22;8170;48.118;11.628;2022-08-19T05:09:32;18.60;99.90
1015;DHT22;8170;48.118;11.628;2022-08-19T05:10:55;18.60;99.90
1015;DHT22;8170;48.118;11.628;2022-08-19T05:11:58;18.60;99.90
1015;DHT22;8170;48.118;11.628;2022-08-19T05:13:02;18.60;99.90
1015;DHT22;8170;48.118;11.628;2022-08-19T05:14:05;18.60;99.90
1015;DHT22;8170;48.118;11.628;2022-08-19T05:15:11;18.60;99.90
1015;DHT22;8170;48.118;11.628;2022-08-19T05:16:14;18.60;99.90
1015;DHT22;8170;48.118;11.628;2022-08-19T05:17:18;18.60;99.90
1015;DHT22;8170;48.118;11.628;2022-08-19T05:18:30;18.70;99.90
1015;DHT22;8170;48.118;11.628;2022-08-19T05:19:51;18.60;99.90
1015;DHT22;8170;48.118;11.628;2022-08-19T05:21:17;18.60;99.90
1015;DHT22;8170;48.118;11.628;2022-08-19T05:22:38;18.60;99.90
1015;DHT22;8170;48.118;11.628;2022-08-19T05:23:41;18.60;99.90
1015;DHT22;8170;48.118;11.628;2022-08-19T05:24:43;18.60;99.90
1015;DHT22;8170;48.118;11.628;2022-08-19T05:26:06;18.60;99.90
1015;DHT22;8170;48.118;11.628;2022-08-19T05:27:11;18.60;99.90
1015;DHT22;8170;48.118;11.628;2022-08-19T05:28:13;18.60;99.90
1015;DHT22;8170;48.118;11.628;2022-08-19T05:29:19;18.60;99.90
1015;DHT22;8170;48.118;11.628;2022-08-19T05:30:24;18.60;99.90
1015;DHT22;8170;48.118;11.628;2022-08-19T05:31:48;18.50;99.90
1015;DHT22;8170;48.118;11.628;2022-08-19T05:32:51;18.50;99.90
1015;DHT22;8170;48.118;11.628;2022-08-19T05:33:55;18.50;99.90
1015;DHT22;8170;48.118;11.628;2022-08-19T05:34:59;18.50;99.90
1015;DHT22;8170;48.118;11.628;2022-08-19T05:36:03;18.60;99.90
1015;DHT22;8170;48.118;11.628;2022-08-19T05:37:07;18.60;99.90
1015;DHT22;8170;48.118;11.628;2022-08-19T05:38:10;18.60;99.90
1015;DHT22;8170;48.118;11.628;2022-08-19T05:39:17;18.60;99.90
1015;DHT22;8170;48.118;11.628;2022-08-19T05:40:19;18.60;99.90
1015;DHT22;8170;48.118;11.628;2022-08-19T05:41:23;18.70;99.90
1015;DHT22;8170;48.118;11.628;2022-08-19T05:42:32;18.60;99.90
1015;DHT22;8170;48.118;11.628;2022-08-19T05:43:35;18.70;99.90
1015;DHT22;8170;48.118;11.628;2022-08-19T05:44:39;18.70;99.90
1015;DHT22;8170;48.118;11.628;2022-08-19T05:45:47;18.60;99.90
1015;DHT22;8170;48.118;11.628;2022-08-19T05:46:49;18.60;99.90
1015;DHT22;8170;48.118;11.628;2022-08-19T05:47:54;18.60;99.90
1015;DHT22;8170;48.118;11.628;2022-08-19T05:48:56;18.60;99.90
1015;DHT22;8170;48.118;11.628;2022-08-19T05:50:00;18.60;99.90
1015;DHT22;8170;48.118;11.628;2022-08-19T05:51:06;18.60;99.90
1015;DHT22;8170;48.118;11.628;2022-08-19T05:52:11;18.60;99.90
1015;DHT22;8170;48.118;11.628;2022-08-19T05:53:13;18.60;99.90
1015;DHT22;8170;48.118;11.628;2022-08-19T05:54:18;18.60;99.90
1015;DHT22;8170;48.118;11.628;2022-08-19T05:55:20;18.70;99.90
1015;DHT22;8170;48.118;11.628;2022-08-19T05:56:25;18.70;99.90
1015;DHT22;8170;48.118;11.628;2022-08-19T05:57:27;18.70;99.90
1015;DHT22;8170;48.118;11.628;2022-08-19T05:58:31;18.70;99.90
1015;DHT22;8170;48.118;11.628;2022-08-19T05:59:34;18.80;99.90
1015;DHT22;8170;48.118;11.628;2022-08-19T06:00:40;18.70;99.90
1015;DHT22;8170;48.118;11.628;2022-08-19T06:01:49;18.70;99.90
1015;DHT22;8170;48.118;11.628;2022-08-19T06:02:53;18.80;99.90
1015;DHT22;8170;48.118;11.628;2022-08-19T06:03:57;18.80;99.90
1015;DHT22;8170;48.118;11.628;2022-08-19T06:05:02;18.80;99.90
1015;DHT22;8170;48.118;11.628;2022-08-19T06:06:06;18.80;99.90
1015;DHT22;8170;48.118;11.628;2022-08-19T06:07:09;18.80;99.90
1015;DHT22;8170;48.118;11.628;2022-08-19T06:08:13;18.80;99.90
1015;DHT22;8170;48.118;11.628;2022-08-19T06:09:17;18.90;99.90
1015;DHT22;8170;48.118;11.628;2022-08-19T06:10:19;18.90;99.90
1015;DHT22;8170;48.118;11.628;2022-08-19T06:11:30;18.90;99.90
1015;DHT22;8170;48.118;11.628;2022-08-19T06:12:35;18.80;99.90
1015;DHT22;8170;48.118;11.628;2022-08-19T06:13:38;18.80;99.90
1015;DHT22;8170;48.118;11.628;2022-08-19T06:14:40;18.90;99.90
1015;DHT22;8170;48.118;11.628;2022-08-19T06:15:43;18.90;99.90
1015;DHT22;8170;48.118;11.628;2022-08-19T06:16:47;18.90;99.90
1015;DHT22;8170;48.118;11.628;2022-08-19T06:17:50;18.90;99.90
1015;DHT22;8170;48.118;11.628;2022-08-19T06:18:53;18.90;99.90
1015;DHT22;8170;48.118;11.628;2022-08-19T06:19:56;18.90;99.90
1015;DHT22;8170;48.118;11.628;2022-08-19T06:21:00;18.90;99.90
1015;DHT22;8170;48.118;11.628;2022-08-19T06:22:05;18.90;99.90
1015;DHT22;8170;48.118;11.628;2022-08-19T06:23:09;18.90;99.90
1015;DHT22;8170;48.118;11.628;2022-08-19T06:24:19;18.90;99.90
1015;DHT22;8170;48.118;11.628;2022-08-19T06:25:23;18.90;99.90
1015;DHT22;8170;48.118;11.628;2022-08-19T06:26:31;18.90;99.90
1015;DHT22;8170;48.118;11.628;2022-08-19T06:27:37;18.90;99.90
1015;DHT22;8170;48.118;11.628;2022-08-19T06:28:54;18.90;99.90
1015;DHT22;8170;48.118;11.628;2022-08-19T06:29:56;18.90;99.90
1015;DHT22;8170;48.118;11.628;2022-08-19T06:31:00;18.90;99.90
1015;DHT22;8170;48.118;11.628;2022-08-19T06:32:09;18.90;99.90
1015;DHT22;8170;48.118;11.628;2022-08-19T06:33:12;18.90;99.90
1015;DHT22;8170;48.118;11.628;2022-08-19T06:34:15;18.90;99.90
1015;DHT22;8170;48.118;11.628;2022-08-19T06:35:19;18.90;99.90
1015;DHT22;8170;48.118;11.628;2022-08-19T06:36:24;18.90;99.90
1015;DHT22;8170;48.118;11.628;2022-08-19T06:37:28;18.90;99.90
1015;DHT22;8170;48.118;11.628;2022-08-19T06:38:31;19.00;99.90
1015;DHT22;8170;48.118;11.628;2022-08-19T06:39:43;18.90;99.90
1015;DHT22;8170;48.118;11.628;2022-08-19T06:40:46;19.00;99.90
1015;DHT22;8170;48.118;11.628;2022-08-19T06:41:50;19.00;99.90
1015;DHT22;8170;48.118;11.628;2022-08-19T06:42:58;19.00;99.90
1015;DHT22;8170;48.118;11.628;2022-08-19T06:44:06;19.00;99.90
1015;DHT22;8170;48.118;11.628;2022-08-19T06:45:14;19.00;99.90
1015;DHT22;8170;48.118;11.628;2022-08-19T06:46:17;19.10;99.90
1015;DHT22;8170;48.118;11.628;2022-08-19T06:47:22;19.10;99.90
1015;DHT22;8170;48.118;11.628;2022-08-19T06:48:29;19.10;99.90
1015;DHT22;8170;48.118;11.628;2022-08-19T06:49:34;19.10;99.90
1015;DHT22;8170;48.118;11.628;2022-08-19T06:50:37;19.20;99.90
1015;DHT22;8170;48.118;11.628;2022-08-19T06:51:42;19.20;99.90
1015;DHT22;8170;48.118;11.628;2022-08-19T06:52:45;19.20;99.90
1015;DHT22;8170;48.118;11.628;2022-08-19T06:53:52;19.30;99.90
1015;DHT22;8170;48.118;11.628;2022-08-19T06:54:58;19.20;99.90
1015;DHT22;8170;48.118;11.628;2022-08-19T06:56:02;19.20;99.90
1015;DHT22;8170;48.118;11.628;2022-08-19T06:57:05;19.20;99.90
1015;DHT22;8170;48.118;11.628;2022-08-19T06:58:08;19.20;99.90
1015;DHT22;8170;48.118;11.628;2022-08-19T06:59:12;19.20;99.90
1015;DHT22;8170;48.118;11.628;2022-08-19T07:00:16;19.20;99.90
1015;DHT22;8170;48.118;11.628;2022-08-19T07:01:18;19.30;99.90
1015;DHT22;8170;48.118;11.628;2022-08-19T07:02:26;19.20;99.90
1015;DHT22;8170;48.118;11.628;2022-08-19T07:03:30;19.20;99.90
1015;DHT22;8170;48.118;11.628;2022-08-19T07:04:38;19.20;99.90
1015;DHT22;8170;48.118;11.628;2022-08-19T07:05:43;19.10;99.90
1015;DHT22;8170;48.118;11.628;2022-08-19T07:06:48;19.10;99.90
1015;DHT22;8170;48.118;11.628;2022-08-19T07:07:56;19.10;99.90
1015;DHT22;8170;48.118;11.628;2022-08-19T07:09:07;19.10;99.90
1015;DHT22;8170;48.118;11.628;2022-08-19T07:10:10;19.10;99.90
1015;DHT22;8170;48.118;11.628;2022-08-19T07:11:15;19.20;99.90
1015;DHT22;8170;48.118;11.628;2022-08-19T07:12:19;19.20;99.90
1015;DHT22;8170;48.118;11.628;2022-08-19T07:13:23;19.30;99.90
1015;DHT22;8170;48.118;11.628;2022-08-19T07:14:27;19.40;99.90
1015;DHT22;8170;48.118;11.628;2022-08-19T07:15:30;19.40;99.90
1015;DHT22;8170;48.118;11.628;2022-08-19T07:16:32;19.50;99.90
1015;DHT22;8170;48.118;11.628;2022-08-19T07:17:37;19.60;99.90
1015;DHT22;8170;48.118;11.628;2022-08-19T07:18:42;19.60;99.90
1015;DHT22;8170;48.118;11.628;2022-08-19T07:19:47;19.60;99.90
1015;DHT22;8170;48.118;11.628;2022-08-19T07:21:03;19.50;99.90
1015;DHT22;8170;48.118;11.628;2022-08-19T07:22:13;19.60;99.90
1015;DHT22;8170;48.118;11.628;2022-08-19T07:23:18;19.60;99.90
1015;DHT22;8170;48.118;11.628;2022-08-19T07:24:22;19.70;99.90
1015;DHT22;8170;48.118;11.628;2022-08-19T07:25:26;19.70;99.90